Time,TemperatureF,DewpointF,PressureIn,WindDirection,WindDirectionDegrees,WindSpeedMPH,WindSpeedGustMPH,Humidity,HourlyPrecipIn,Conditions,Clouds,dailyrainin,SoftwareType,DateUTC
2013-06-14 00:02:00,60.4,43.7,30.72,West,269,0.0,0.0,54,0.00,,,0.00,meteohub,2013-06-14 07:02:00,
2013-06-14 00:22:00,60.3,44.1,30.72,West,270,0.0,0.0,55,0.00,,,0.00,meteohub,2013-06-14 07:22:00,
2013-06-14 00:42:00,59.7,43.5,30.72,West,269,0.0,0.0,55,0.00,,,0.00,meteohub,2013-06-14 07:42:00,
2013-06-14 01:02:00,59.7,44.1,30.72,West,270,0.0,4.0,56,0.00,,,0.00,meteohub,2013-06-14 08:02:00,
2013-06-14 01:22:00,60.8,45.5,30.72,SW,229,0.0,4.0,57,0.00,,,0.00,meteohub,2013-06-14 08:22:00,
2013-06-14 01:42:00,61.3,46.4,30.72,South,176,0.0,0.0,58,0.00,,,0.00,meteohub,2013-06-14 08:42:00,
2013-06-14 02:02:00,61.5,47.5,30.72,SSW,203,0.0,6.0,60,0.00,,,0.00,meteohub,2013-06-14 09:02:00,
2013-06-14 02:22:00,62.1,47.5,30.72,South,176,3.0,8.0,59,0.00,,,0.00,meteohub,2013-06-14 09:22:00,
2013-06-14 02:42:00,62.2,47.3,30.72,South,174,4.0,6.0,58,0.00,,,0.00,meteohub,2013-06-14 09:42:00,
2013-06-14 03:02:00,62.2,45.9,30.69,South,169,5.0,8.0,55,0.00,,,0.00,meteohub,2013-06-14 10:02:00,
2013-06-14 03:22:00,62.2,45.3,30.72,ENE,68,4.0,5.0,54,0.00,,,0.00,meteohub,2013-06-14 10:22:00,
2013-06-14 03:42:00,62.2,45.0,30.72,ESE,109,4.0,5.0,53,0.00,,,0.00,meteohub,2013-06-14 10:42:00,
2013-06-14 04:02:00,62.2,44.4,30.72,SE,145,3.0,8.0,52,0.00,,,0.00,meteohub,2013-06-14 11:02:00,
2013-06-14 04:22:00,62.4,44.6,30.72,South,172,0.0,5.0,52,0.00,,,0.00,meteohub,2013-06-14 11:22:00,
2013-06-14 04:42:00,62.6,44.2,30.72,ESE,120,0.0,0.0,51,0.00,,,0.00,meteohub,2013-06-14 11:42:00,
2013-06-14 05:02:00,62.6,43.7,30.72,East,92,0.0,0.0,50,0.00,,,0.00,meteohub,2013-06-14 12:02:00,
2013-06-14 05:22:00,62.6,43.2,30.72,SE,127,0.0,0.0,49,0.00,,,0.00,meteohub,2013-06-14 12:22:00,
2013-06-14 05:42:00,62.4,42.4,30.72,East,80,0.0,0.0,48,0.00,,,0.00,meteohub,2013-06-14 12:42:00,
2013-06-14 06:02:00,62.8,42.3,30.72,ESE,103,0.0,0.0,47,0.00,,,0.00,meteohub,2013-06-14 13:02:00,
2013-06-14 06:22:00,63.0,42.4,30.72,ESE,109,0.0,0.0,47,0.00,,,0.00,meteohub,2013-06-14 13:22:00,
2013-06-14 06:42:00,63.1,42.1,30.72,SSE,167,0.0,0.0,46,0.00,,,0.00,meteohub,2013-06-14 13:42:00,
2013-06-14 07:02:00,63.5,41.7,30.75,ESE,104,0.0,0.0,45,0.00,,,0.00,meteohub,2013-06-14 14:02:00,
2013-06-14 07:22:00,63.9,41.5,30.75,South,180,0.0,0.0,44,0.00,,,0.00,meteohub,2013-06-14 14:22:00,
2013-06-14 07:42:00,64.0,40.5,30.75,SSE,167,0.0,0.0,42,0.00,,,0.00,meteohub,2013-06-14 14:42:00,
2013-06-14 08:02:00,64.0,39.9,30.75,South,179,0.0,0.0,41,0.00,,,0.00,meteohub,2013-06-14 15:02:00,
2013-06-14 08:22:00,64.4,40.1,30.75,SSE,150,9.0,0.0,41,0.00,,,0.00,meteohub,2013-06-14 15:22:00,
2013-06-14 08:42:00,64.8,39.9,30.75,SSE,161,6.0,8.0,40,0.00,,,0.00,meteohub,2013-06-14 15:42:00,
2013-06-14 09:02:00,64.8,38.5,30.75,SW,236,3.0,8.0,38,0.00,,,0.00,meteohub,2013-06-14 16:02:00,
2013-06-14 09:22:00,65.1,39.6,30.75,South,181,8.0,10.0,39,0.00,,,0.00,meteohub,2013-06-14 16:22:00,
2013-06-14 09:42:00,65.3,39.0,30.75,SSE,160,3.0,11.0,38,0.00,,,0.00,meteohub,2013-06-14 16:42:00,
2013-06-14 10:02:00,66.2,39.2,30.75,South,173,6.0,9.0,37,0.00,,,0.00,meteohub,2013-06-14 17:02:00,
2013-06-14 10:22:00,66.7,39.0,30.75,South,183,6.0,9.0,36,0.00,,,0.00,meteohub,2013-06-14 17:22:00,
2013-06-14 10:42:00,66.9,38.3,30.75,SW,231,8.0,9.0,35,0.00,,,0.00,meteohub,2013-06-14 17:42:00,
2013-06-14 11:02:00,67.5,38.8,30.75,South,186,10.0,11.0,35,0.00,,,0.00,meteohub,2013-06-14 18:02:00,
2013-06-14 11:22:00,68.4,38.8,30.75,South,186,5.0,14.0,34,0.00,,,0.00,meteohub,2013-06-14 18:22:00,
2013-06-14 11:42:00,68.9,39.4,30.75,South,190,8.0,11.0,34,0.00,,,0.00,meteohub,2013-06-14 18:42:00,
2013-06-14 12:02:00,70.2,39.7,30.75,SSW,202,7.0,11.0,33,0.00,,,0.00,meteohub,2013-06-14 19:02:00,
2013-06-14 12:22:00,69.1,39.6,30.75,South,176,10.0,10.0,34,0.00,,,0.00,meteohub,2013-06-14 19:22:00,
2013-06-14 12:42:00,68.4,38.8,30.75,SW,222,11.0,12.0,34,0.00,,,0.00,meteohub,2013-06-14 19:42:00,
2013-06-14 13:02:00,69.3,38.8,30.75,SW,224,11.0,13.0,33,0.00,,,0.00,meteohub,2013-06-14 20:02:00,
2013-06-14 13:22:00,69.4,39.0,30.75,SW,220,9.0,12.0,33,0.00,,,0.00,meteohub,2013-06-14 20:22:00,
2013-06-14 13:42:00,69.1,38.8,30.72,SW,235,11.0,13.0,33,0.00,,,0.00,meteohub,2013-06-14 20:42:00,
2013-06-14 14:02:00,69.3,38.8,30.72,SSW,212,8.0,11.0,33,0.00,,,0.00,meteohub,2013-06-14 21:02:00,
2013-06-14 14:22:00,71.4,40.8,30.72,SW,219,9.0,11.0,33,0.00,,,0.00,meteohub,2013-06-14 21:22:00,
2013-06-14 14:42:00,70.2,39.7,30.72,South,190,7.0,13.0,33,0.00,,,0.00,meteohub,2013-06-14 21:42:00,
2013-06-14 15:02:00,70.2,39.7,30.72,SW,217,11.0,12.0,33,0.00,,,0.00,meteohub,2013-06-14 22:02:00,
2013-06-14 15:22:00,69.1,38.8,30.72,WSW,243,8.0,13.0,33,0.00,,,0.00,meteohub,2013-06-14 22:22:00,
2013-06-14 15:42:00,70.0,39.6,30.69,South,189,5.0,12.0,33,0.00,,,0.00,meteohub,2013-06-14 22:42:00,
2013-06-14 16:02:00,69.4,39.0,30.72,WSW,242,9.0,10.0,33,0.00,,,0.00,meteohub,2013-06-14 23:02:00,
2013-06-14 16:22:00,68.4,38.1,30.69,West,269,8.0,13.0,33,0.00,,,0.00,meteohub,2013-06-14 23:22:00,
2013-06-14 16:42:00,68.9,38.7,30.69,SSW,207,6.0,11.0,33,0.00,,,0.00,meteohub,2013-06-14 23:42:00,
2013-06-14 17:02:00,67.3,37.9,30.69,SSW,213,0.0,3.0,34,0.00,,,0.00,meteohub,2013-06-15 00:02:00,
2013-06-14 17:22:00,68.2,37.9,30.69,West,269,0.0,0.0,33,0.00,,,0.00,meteohub,2013-06-15 00:22:00,
2013-06-14 17:42:00,68.0,38.7,30.69,South,184,0.0,0.0,34,0.00,,,0.00,meteohub,2013-06-15 00:42:00,
2013-06-14 18:02:00,67.6,38.3,30.69,SSW,210,0.0,0.0,34,0.00,,,0.00,meteohub,2013-06-15 01:02:00,
2013-06-14 18:22:00,67.1,37.8,30.69,SSW,202,0.0,0.0,34,0.00,,,0.00,meteohub,2013-06-15 01:22:00,
2013-06-14 18:42:00,66.6,38.1,30.69,WSW,250,0.0,0.0,35,0.00,,,0.00,meteohub,2013-06-15 01:42:00,
2013-06-14 19:02:00,67.1,37.8,30.69,SW,221,3.0,9.0,34,0.00,,,0.00,meteohub,2013-06-15 02:02:00,
2013-06-14 19:22:00,65.8,37.4,30.69,SSW,203,0.0,8.0,35,0.00,,,0.00,meteohub,2013-06-15 02:22:00,
2013-06-14 19:42:00,64.6,37.0,30.69,SW,225,5.0,8.0,36,0.00,,,0.00,meteohub,2013-06-15 02:42:00,
2013-06-14 20:02:00,62.6,37.9,30.69,SSW,197,6.0,8.0,40,0.00,,,0.00,meteohub,2013-06-15 03:02:00,
2013-06-14 20:22:00,61.9,39.2,30.69,SW,217,5.0,6.0,43,0.00,,,0.00,meteohub,2013-06-15 03:22:00,
2013-06-14 20:42:00,61.5,39.4,30.72,South,178,4.0,5.0,44,0.00,,,0.00,meteohub,2013-06-15 03:42:00,
2013-06-14 21:02:00,61.3,39.2,30.69,South,172,0.0,6.0,44,0.00,,,0.00,meteohub,2013-06-15 04:02:00,
2013-06-14 21:22:00,61.3,39.7,30.72,SSW,204,0.0,4.0,45,0.00,,,0.00,meteohub,2013-06-15 04:22:00,
2013-06-14 21:42:00,61.2,39.7,30.72,South,189,0.0,4.0,45,0.00,,,0.00,meteohub,2013-06-15 04:42:00,
2013-06-14 22:02:00,61.0,39.6,30.72,South,172,0.0,5.0,45,0.00,,,0.00,meteohub,2013-06-15 05:02:00,
2013-06-14 22:22:00,61.2,39.7,30.72,South,170,3.0,5.0,45,0.00,,,0.00,meteohub,2013-06-15 05:22:00,
2013-06-14 22:42:00,61.2,39.7,30.72,South,188,4.0,5.0,45,0.00,,,0.00,meteohub,2013-06-15 05:42:00,
2013-06-14 23:02:00,61.3,39.7,30.72,South,171,4.0,7.0,45,0.00,,,0.00,meteohub,2013-06-15 06:02:00,
2013-06-14 23:22:00,61.7,40.1,30.72,SE,132,3.0,5.0,45,0.00,,,0.00,meteohub,2013-06-15 06:22:00,
2013-06-14 23:42:00,62.1,40.5,30.75,South,173,3.0,6.0,45,0.00,,,0.00,meteohub,2013-06-15 06:42:00,